Time;durP1;ratioP1;P1;durP2;ratioP2;P2;SDS_P1;SDS_P2;PMS_P1;PMS_P2;Temp;Humidity;BMP_temperature;BMP_pressure;BME280_temperature;BME280_humidity;BME280_pressure;Samples;Min_cycle;Max_cycle;Signal;HPM_P1;HPM_P2
2022/12/07 00:00:36;;;;;;;;;58.00;45.50;;;;;7.18;67.50;101590.63;2095709;28;46656;-63
2022/12/07 00:01:41;;;;;;;;;60.75;50.75;;;;;7.16;67.32;101584.47;2094025;28;46192;-63
2022/12/07 00:02:41;;;;;;;;;59.00;47.80;;;;;7.16;67.78;101590.63;2094556;28;46988;-62
2022/12/07 00:03:44;;;;;;;;;58.75;47.50;;;;;7.15;67.37;101583.56;2096815;28;46517;-62
2022/12/07 00:04:44;;;;;;;;;58.00;49.00;;;;;7.15;67.28;101591.50;2097460;28;46601;-61
2022/12/07 00:05:44;;;;;;;;;58.75;47.00;;;;;7.16;67.66;101584.47;2095820;28;47121;-61
2022/12/07 00:06:49;;;;;;;;;54.25;45.50;;;;;7.15;67.76;101583.56;2096729;28;46231;-61
2022/12/07 00:07:50;;;;;;;;;56.80;44.60;;;;;7.14;67.62;101578.28;2094406;28;46696;-62
2022/12/07 00:08:50;;;;;;;;;58.50;49.50;;;;;7.13;67.49;101579.16;2096287;28;45115;-61
2022/12/07 00:09:50;;;;;;;;;56.25;47.50;;;;;7.11;67.56;101579.13;2097563;28;46221;-61
2022/12/07 00:10:51;;;;;;;;;57.00;47.50;;;;;7.10;67.47;101577.38;2095952;28;47217;-61
2022/12/07 00:11:51;;;;;;;;;59.25;48.00;;;;;7.09;67.58;101578.25;2097014;28;46142;-61
2022/12/07 00:12:52;;;;;;;;;60.25;49.25;;;;;7.08;67.44;101577.34;2097610;28;46412;-61
2022/12/07 00:13:58;;;;;;;;;58.75;48.25;;;;;7.08;67.50;101573.84;2096505;28;46276;-61
2022/12/07 00:14:58;;;;;;;;;67.20;53.20;;;;;7.08;67.57;101571.19;2096798;28;45826;-62
2022/12/07 00:16:08;;;;;;;;;68.00;53.00;;;;;7.06;67.58;101572.94;2097542;28;46064;-61
2022/12/07 00:17:08;;;;;;;;;61.40;48.80;;;;;7.05;67.37;101569.44;2095582;28;46094;-61
2022/12/07 00:18:08;;;;;;;;;66.00;52.75;;;;;7.06;67.57;101570.31;2096716;28;46502;-63
2022/12/07 00:19:11;;;;;;;;;57.25;47.25;;;;;7.05;67.56;101573.81;2095596;28;46448;-63
2022/12/07 00:20:11;;;;;;;;;55.20;46.20;;;;;7.05;67.60;101576.47;2095805;28;46582;-60
2022/12/07 00:21:20;;;;;;;;;60.25;49.50;;;;;7.02;67.62;101573.81;2095934;28;46250;-61
2022/12/07 00:22:20;;;;;;;;;61.60;49.60;;;;;7.03;67.61;101575.56;2096462;28;46388;-63
2022/12/07 00:23:20;;;;;;;;;61.00;51.00;;;;;7.01;67.78;101575.56;2095616;28;46396;-62
2022/12/07 00:24:21;;;;;;;;;60.00;51.00;;;;;7.01;67.57;101572.06;2095917;28;46149;-60
2022/12/07 00:25:21;;;;;;;;;55.50;45.25;;;;;7.00;67.66;101578.22;2094594;28;45391;-63
2022/12/07 00:26:33;;;;;;;;;64.00;51.00;;;;;7.00;67.62;101576.44;2094157;28;46542;-61
2022/12/07 00:27:34;;;;;;;;;62.80;50.60;;;;;7.01;67.84;101570.28;2092748;28;46603;-62
2022/12/07 00:28:34;;;;;;;;;61.25;50.75;;;;;7.01;67.74;101572.94;2095324;28;47136;-60
2022/12/07 00:29:36;;;;;;;;;66.00;52.75;;;;;7.01;67.73;101569.41;2094582;28;45512;-61
2022/12/07 00:30:37;;;;;;;;;63.20;51.40;;;;;7.01;67.54;101572.94;2095258;28;45256;-61
2022/12/07 00:31:40;;;;;;;;;62.25;52.75;;;;;7.03;67.43;101572.94;2085696;28;45645;-61
2022/12/07 00:32:40;;;;;;;;;61.20;50.60;;;;;7.03;67.61;101567.66;2094404;28;46386;-61
2022/12/07 00:33:41;;;;;;;;;57.75;49.50;;;;;7.04;67.75;101570.31;2094933;28;46707;-61
2022/12/07 00:34:41;;;;;;;;;61.50;48.00;;;;;7.06;67.83;101565.03;2095807;28;46791;-61
2022/12/07 00:35:42;;;;;;;;;63.00;51.50;;;;;7.06;67.57;101568.56;2095253;28;46193;-57
2022/12/07 00:36:42;;;;;;;;;59.75;49.50;;;;;7.07;67.73;101567.69;2095796;28;46970;-61
2022/12/07 00:37:42;;;;;;;;;61.25;49.75;;;;;7.08;67.62;101560.63;2095488;28;46884;-61
2022/12/07 00:38:43;;;;;;;;;68.50;52.50;;;;;7.08;67.64;101564.16;2095560;28;46269;-61
2022/12/07 00:39:45;;;;;;;;;64.25;52.25;;;;;7.09;67.37;101565.94;2095738;28;45488;-61
2022/12/07 00:40:54;;;;;;;;;58.60;48.80;;;;;7.09;67.24;101565.03;2095469;28;46434;-61
2022/12/07 00:41:54;;;;;;;;;59.00;49.40;;;;;7.08;67.24;101566.81;2095260;28;47008;-61
2022/12/07 00:42:54;;;;;;;;;65.50;52.25;;;;;7.08;67.58;101568.56;2095745;28;46647;-60
2022/12/07 00:43:56;;;;;;;;;66.50;53.75;;;;;7.09;67.41;101567.69;2095633;28;46446;-60
2022/12/07 00:44:56;;;;;;;;;60.40;50.40;;;;;7.08;67.54;101566.81;2095840;28;45961;-61
2022/12/07 00:45:57;;;;;;;;;61.50;51.25;;;;;7.08;67.43;101563.28;2095422;28;46435;-62
2022/12/07 00:46:57;;;;;;;;;61.50;50.25;;;;;7.07;67.42;101564.16;2095907;28;46765;-61
2022/12/07 00:47:58;;;;;;;;;53.25;43.00;;;;;7.07;67.18;101562.41;2095720;28;46328;-62
2022/12/07 00:48:58;;;;;;;;;61.50;50.75;;;;;7.07;67.30;101566.78;2095839;28;46871;-61
2022/12/07 00:49:59;;;;;;;;;56.25;46.75;;;;;7.06;67.49;101565.91;2103117;28;46563;-61
2022/12/07 00:51:00;;;;;;;;;55.80;45.40;;;;;7.07;67.33;101562.41;2085905;28;46713;-60
2022/12/07 00:52:01;;;;;;;;;58.80;47.00;;;;;7.07;67.33;101562.41;2084239;28;45840;-60
2022/12/07 00:53:01;;;;;;;;;61.00;50.50;;;;;7.07;67.38;101558.88;2096146;28;46568;-62
2022/12/07 00:54:01;;;;;;;;;60.25;50.25;;;;;7.06;67.30;101562.41;2095510;28;46699;-61
2022/12/07 00:55:02;;;;;;;;;62.50;51.00;;;;;7.07;67.36;101559.75;2095775;28;45686;-61
2022/12/07 00:56:23;;;;;;;;;61.00;50.75;;;;;7.07;67.26;101562.41;2095792;28;46373;-61
2022/12/07 00:57:23;;;;;;;;;63.20;51.00;;;;;7.07;67.45;101565.03;2094963;28;46925;-61
2022/12/07 00:58:23;;;;;;;;;59.25;47.50;;;;;7.07;67.62;101561.50;2095212;28;46434;-63
2022/12/07 00:59:24;;;;;;;;;59.75;46.75;;;;;7.08;67.44;101558.00;2095610;28;46770;-62
2022/12/07 01:00:24;;;;;;;;;60.75;49.25;;;;;7.08;67.48;101558.00;2095730;28;47077;-58
2022/12/07 01:01:27;;;;;;;;;63.25;51.25;;;;;7.07;67.31;101551.84;2095278;28;46891;-62
2022/12/07 01:02:27;;;;;;;;;61.00;49.00;;;;;7.06;67.53;101555.34;2095719;28;47024;-61
2022/12/07 01:03:28;;;;;;;;;61.50;51.25;;;;;7.06;67.47;101555.34;2095628;28;46287;-62
2022/12/07 01:04:29;;;;;;;;;57.00;47.00;;;;;7.08;67.41;101548.31;2095521;28;47017;-61
2022/12/07 01:05:29;;;;;;;;;63.40;51.20;;;;;7.08;67.51;101548.31;2095982;28;46467;-61
2022/12/07 01:06:30;;;;;;;;;60.50;51.00;;;;;7.08;67.54;101550.97;2096809;28;46740;-62
2022/12/07 01:07:31;;;;;;;;;62.00;50.60;;;;;7.09;67.29;101550.09;2094789;28;46480;-62
2022/12/07 01:08:32;;;;;;;;;52.75;43.50;;;;;7.09;67.41;101547.44;2091655;28;46319;-59
2022/12/07 01:09:32;;;;;;;;;55.80;46.40;;;;;7.11;67.32;101552.72;2090949;28;45755;-62
2022/12/07 01:10:33;;;;;;;;;58.00;48.50;;;;;7.12;67.41;101551.00;2096844;28;46817;-61
2022/12/07 01:11:33;;;;;;;;;64.25;51.00;;;;;7.12;67.20;101549.25;2096930;28;46129;-60
2022/12/07 01:12:33;;;;;;;;;59.50;49.50;;;;;7.14;67.38;101543.97;2096919;28;45694;-61
2022/12/07 01:13:35;;;;;;;;;58.50;47.50;;;;;7.13;67.19;101542.22;2096860;28;46319;-62
2022/12/07 01:14:36;;;;;;;;;40.00;33.80;;;;;7.14;66.96;101544.84;2097355;28;45097;-63
2022/12/07 01:15:44;;;;;;;;;8.50;8.00;;;;;7.14;67.38;101544.84;2096938;28;46981;-61
2022/12/07 01:16:44;;;;;;;;;59.80;47.40;;;;;7.15;67.15;101551.00;2096593;28;46778;-62
2022/12/07 01:17:45;;;;;;;;;58.25;49.25;;;;;7.13;67.40;101544.84;2096729;28;46784;-61
2022/12/07 01:18:48;;;;;;;;;63.75;51.00;;;;;7.15;67.39;101548.38;2097125;28;46415;-62
2022/12/07 01:19:48;;;;;;;;;48.60;40.00;;;;;7.14;67.27;101546.63;2096424;28;47012;-61
2022/12/07 01:21:07;;;;;;;;;55.50;45.75;;;;;7.14;67.39;101547.50;2096912;28;46399;-62
2022/12/07 01:22:08;;;;;;;;;57.20;46.40;;;;;7.14;67.04;101552.78;2096727;28;46963;-63
2022/12/07 01:23:08;;;;;;;;;58.00;47.50;;;;;7.14;67.44;101551.91;2096967;28;46345;-64
2022/12/07 01:24:10;;;;;;;;;58.50;47.50;;;;;7.12;67.29;101541.34;2096739;28;46706;-61
2022/12/07 01:25:11;;;;;;;;;56.40;46.40;;;;;7.13;67.38;101545.72;2096921;28;46538;-61
2022/12/07 01:26:15;;;;;;;;;61.00;48.00;;;;;7.14;67.26;101546.63;2096691;28;46927;-62
2022/12/07 01:27:16;;;;;;;;;64.40;50.00;;;;;7.13;67.49;101544.84;2096235;28;46730;-61
2022/12/07 01:28:16;;;;;;;;;59.50;50.00;;;;;7.13;67.44;101539.56;2094966;28;46186;-62
2022/12/07 01:29:16;;;;;;;;;62.75;48.50;;;;;7.16;67.15;101544.84;2095957;28;46231;-60
2022/12/07 01:30:16;;;;;;;;;55.75;47.25;;;;;7.15;67.26;101546.63;2096686;28;46515;-61
2022/12/07 01:31:20;;;;;;;;;57.50;46.25;;;;;7.17;67.32;101541.34;2097032;28;46184;-62
2022/12/07 01:32:21;;;;;;;;;60.40;49.80;;;;;7.17;67.26;101546.63;2097175;28;46229;-62
2022/12/07 01:33:21;;;;;;;;;55.50;45.00;;;;;7.15;67.32;101545.75;2098360;27;46829;-61
2022/12/07 01:34:21;;;;;;;;;59.25;49.00;;;;;7.14;67.59;101539.56;2096828;28;46694;-61
2022/12/07 01:35:21;;;;;;;;;61.75;48.25;;;;;7.14;67.54;101542.22;2096652;28;46214;-61
2022/12/07 01:36:26;;;;;;;;;61.25;50.00;;;;;7.15;67.65;101543.09;2096400;28;46616;-62
2022/12/07 01:37:26;;;;;;;;;59.20;47.20;;;;;7.15;67.68;101543.09;2097122;28;46365;-60
2022/12/07 01:38:26;;;;;;;;;57.50;48.25;;;;;7.16;67.36;101539.59;2096606;28;46337;-60
2022/12/07 01:39:27;;;;;;;;;57.00;47.50;;;;;7.15;67.34;101537.81;2096692;28;46845;-61
2022/12/07 01:40:27;;;;;;;;;55.25;46.50;;;;;7.14;67.49;101536.06;2096807;28;46273;-62
2022/12/07 01:41:31;;;;;;;;;57.75;47.25;;;;;7.10;67.46;101532.50;2097006;28;46424;-60
2022/12/07 01:42:32;;;;;;;;;55.20;46.60;;;;;7.07;67.62;101536.00;2094751;28;46494;-61
2022/12/07 01:43:33;;;;;;;;;60.25;47.25;;;;;7.05;67.47;101535.13;2096651;28;46489;-60
2022/12/07 01:45:12;;;;;;;;;54.20;44.20;;;;;7.05;67.38;101534.25;2094573;28;46183;-61
2022/12/07 01:46:12;;;;;;;;;57.80;47.80;;;;;7.04;67.50;101529.84;2096572;28;45849;-60
2022/12/07 01:47:13;;;;;;;;;58.00;47.00;;;;;7.03;67.43;101536.88;2096439;28;46525;-60
2022/12/07 01:48:17;;;;;;;;;57.00;45.75;;;;;7.03;67.72;101534.22;2095888;28;46303;-60
2022/12/07 01:49:23;;;;;;;;;58.40;47.80;;;;;7.01;67.59;101528.06;2095867;28;46698;-62
2022/12/07 01:50:27;;;;;;;;;60.40;47.60;;;;;7.02;67.63;101529.84;2097125;28;45929;-61
2022/12/07 01:51:29;;;;;;;;;56.80;47.00;;;;;7.04;67.62;101535.13;2096857;28;46525;-60
2022/12/07 01:52:33;;;;;;;;;56.00;47.00;;;;;7.04;67.61;101530.72;2096451;28;46347;-61
2022/12/07 01:53:37;;;;;;;;;55.80;47.00;;;;;7.05;67.43;101532.47;2096675;28;46419;-61
2022/12/07 01:54:37;;;;;;;;;56.40;47.20;;;;;7.04;67.57;101533.34;2096763;28;46824;-61
2022/12/07 01:55:41;;;;;;;;;57.75;47.75;;;;;7.05;67.57;101531.59;2096528;28;46511;-60
2022/12/07 01:56:48;;;;;;;;;54.60;44.80;;;;;7.04;67.71;101530.72;2096770;28;46449;-63
2022/12/07 01:57:52;;;;;;;;;59.00;46.20;;;;;7.05;67.48;101532.47;2094546;28;46191;-60
2022/12/07 01:58:55;;;;;;;;;59.20;49.80;;;;;7.05;67.54;101528.97;2096420;28;46640;-60
2022/12/07 01:59:57;;;;;;;;;48.40;40.40;;;;;7.03;67.53;101528.97;2096786;28;46433;-60
2022/12/07 02:00:57;;;;;;;;;57.80;48.00;;;;;7.01;67.66;101530.72;2096515;28;47017;-60
2022/12/07 02:01:58;;;;;;;;;58.00;48.00;;;;;7.03;67.72;101530.72;2096423;28;46879;-60
2022/12/07 02:03:09;;;;;;;;;38.50;34.25;;;;;7.03;67.62;101533.34;2096421;28;46517;-61
2022/12/07 02:04:11;;;;;;;;;59.60;48.80;;;;;7.00;67.61;101526.31;2096822;28;46775;-61
2022/12/07 02:05:13;;;;;;;;;63.80;51.40;;;;;7.00;67.40;101531.59;2096259;28;46578;-61
2022/12/07 02:06:19;;;;;;;;;60.80;48.40;;;;;6.98;67.48;101530.66;2096516;28;46768;-62
2022/12/07 02:07:22;;;;;;;;;61.40;50.40;;;;;6.97;67.42;101528.91;2094112;28;46229;-59
2022/12/07 02:08:23;;;;;;;;;57.40;48.00;;;;;6.97;67.54;101534.19;2094647;28;46582;-60
2022/12/07 02:09:24;;;;;;;;;60.60;49.60;;;;;6.97;67.40;101530.66;2095339;28;46646;-60
2022/12/07 02:10:28;;;;;;;;;63.25;50.50;;;;;6.97;67.62;101533.28;2097100;28;45621;-62
2022/12/07 02:11:28;;;;;;;;;59.00;48.60;;;;;6.95;67.51;101533.28;2096382;28;46421;-63
2022/12/07 02:12:29;;;;;;;;;60.50;49.50;;;;;6.95;67.49;101532.41;2096501;28;46796;-61
2022/12/07 02:13:33;;;;;;;;;55.75;46.50;;;;;6.95;67.39;101540.31;2097025;28;46697;-60
2022/12/07 02:14:33;;;;;;;;;63.60;52.00;;;;;6.93;67.42;101532.41;2095193;28;46342;-61
2022/12/07 02:15:48;;;;;;;;;58.25;47.50;;;;;6.93;67.38;101534.16;2096455;28;46368;-60
2022/12/07 02:16:57;;;;;;;;;62.00;51.40;;;;;6.92;67.43;101529.75;2084794;28;46868;-60
2022/12/07 02:18:09;;;;;;;;;63.20;51.60;;;;;6.90;67.27;101529.75;2086472;28;46270;-61
2022/12/07 02:19:09;;;;;;;;;59.20;49.20;;;;;6.90;67.41;101528.88;2096500;28;46294;-60
2022/12/07 02:20:25;;;;;;;;;60.75;50.25;;;;;6.88;67.59;101531.50;2096377;28;46471;-60
2022/12/07 02:21:37;;;;;;;;;61.00;49.40;;;;;6.87;67.53;101539.41;2095573;28;46843;-60
2022/12/07 02:22:52;;;;;;;;;62.40;50.00;;;;;6.86;67.24;101535.91;2095899;28;46666;-59
2022/12/07 02:23:59;;;;;;;;;62.60;50.80;;;;;6.88;67.65;101538.53;2095624;28;45617;-62
2022/12/07 02:25:11;;;;;;;;;60.80;49.80;;;;;6.86;67.37;101541.16;2104419;28;46351;-61
2022/12/07 02:26:14;;;;;;;;;57.20;46.60;;;;;6.84;67.31;101534.09;2102820;28;46489;-60
2022/12/07 02:27:27;;;;;;;;;60.00;48.00;;;;;6.82;67.20;101536.72;2093187;28;47122;-60
2022/12/07 02:28:33;;;;;;;;;56.20;46.80;;;;;6.81;67.22;101531.44;2103639;28;46373;-61
2022/12/07 02:29:39;;;;;;;;;58.40;46.00;;;;;6.79;66.95;101531.44;2101015;28;46234;-61
2022/12/07 02:30:46;;;;;;;;;58.00;48.80;;;;;6.78;67.42;101532.31;2096444;28;46446;-60
2022/12/07 02:32:06;;;;;;;;;61.00;49.80;;;;;6.76;67.36;101526.16;2096059;28;46577;-59
2022/12/07 02:33:17;;;;;;;;;57.40;47.00;;;;;6.76;67.32;101527.03;2096993;28;46276;-63
2022/12/07 02:34:40;;;;;;;;;58.00;49.00;;;;;6.76;66.97;101528.78;2096918;28;46748;-61
2022/12/07 02:35:50;;;;;;;;;62.80;49.80;;;;;6.74;67.23;101525.25;2097335;28;46931;-61
2022/12/07 02:37:02;;;;;;;;;57.00;48.60;;;;;6.73;67.43;101528.75;2095837;28;46368;-59
2022/12/07 02:38:15;;;;;;;;;56.40;46.80;;;;;6.71;67.35;101526.09;2087814;28;46523;-61
2022/12/07 02:39:23;;;;;;;;;60.20;48.20;;;;;6.71;67.14;101526.09;2088957;28;46309;-61
2022/12/07 02:40:39;;;;;;;;;58.00;49.20;;;;;6.71;67.29;101527.84;2096752;28;46612;-62
2022/12/07 02:41:46;;;;;;;;;56.60;47.60;;;;;6.70;67.49;101526.09;2095856;28;46615;-61
2022/12/07 02:42:53;;;;;;;;;57.40;46.40;;;;;6.69;67.13;101526.97;2096703;28;46441;-61
2022/12/07 02:43:57;;;;;;;;;51.20;43.00;;;;;6.69;67.28;101524.31;2098363;28;45269;-60
2022/12/07 02:45:00;;;;;;;;;57.40;46.20;;;;;6.68;67.39;101526.09;2096456;28;46619;-61
2022/12/07 02:46:05;;;;;;;;;53.60;45.40;;;;;6.66;67.23;101522.56;2097490;28;45205;-61
2022/12/07 02:47:10;;;;;;;;;52.60;43.60;;;;;6.68;67.12;101528.72;2097744;28;46938;-62
2022/12/07 02:48:15;;;;;;;;;56.40;45.80;;;;;6.67;67.25;101528.72;2096813;28;46501;-61
2022/12/07 02:49:16;;;;;;;;;53.00;44.20;;;;;6.67;67.47;101526.97;2097127;28;46565;-62
2022/12/07 02:50:20;;;;;;;;;53.25;42.50;;;;;6.68;67.21;101527.84;2096364;28;46389;-60
2022/12/07 02:51:22;;;;;;;;;48.80;42.20;;;;;6.66;67.13;101527.84;2094361;28;46775;-62
2022/12/07 02:52:22;;;;;;;;;53.60;45.60;;;;;6.65;67.31;101526.06;2097618;28;45268;-60
2022/12/07 02:53:30;;;;;;;;;51.75;41.00;;;;;6.63;67.14;101533.09;2096276;28;46569;-61
2022/12/07 02:54:30;;;;;;;;;53.20;43.20;;;;;6.62;67.13;101520.78;2096302;28;47094;-60
2022/12/07 02:55:41;;;;;;;;;49.50;42.25;;;;;6.63;67.34;101530.44;2097580;28;46309;-62
2022/12/07 02:56:44;;;;;;;;;53.00;44.60;;;;;6.62;67.46;101519.91;2095674;28;46451;-61
2022/12/07 02:58:03;;;;;;;;;51.40;40.80;;;;;6.62;67.39;101517.25;2095561;28;46452;-62
2022/12/07 02:59:12;;;;;;;;;53.80;44.00;;;;;6.60;67.25;101522.50;2094707;28;46645;-62
2022/12/07 03:00:19;;;;;;;;;56.40;46.00;;;;;6.61;67.56;101518.13;2097124;28;46357;-61
2022/12/07 03:01:35;;;;;;;;;45.40;41.20;;;;;6.60;67.23;101521.63;2094939;28;46451;-60
2022/12/07 03:03:02;;;;;;;;;54.80;45.80;;;;;6.57;67.22;101525.13;2096353;28;46743;-60
2022/12/07 03:04:20;;;;;;;;;48.00;39.60;;;;;6.55;67.50;101518.94;2093310;28;46713;-62
2022/12/07 03:05:24;;;;;;;;;54.40;42.40;;;;;6.56;67.44;101518.06;2096030;28;46447;-59
2022/12/07 03:06:39;;;;;;;;;48.80;41.40;;;;;6.56;67.72;101523.34;2097782;28;46270;-60
2022/12/07 03:08:10;;;;;;;;;51.20;40.60;;;;;6.54;67.68;101518.94;2095058;28;45093;-61
2022/12/07 03:09:14;;;;;;;;;46.60;40.40;;;;;6.52;67.50;101510.16;2095412;28;46383;-62
2022/12/07 03:10:27;;;;;;;;;50.40;42.00;;;;;6.51;67.68;101511.03;2104813;27;46894;-62
2022/12/07 03:12:10;;;;;;;;;50.00;41.80;;;;;6.46;67.63;101514.47;2102600;27;46630;-61
2022/12/07 03:13:36;;;;;;;;;51.80;43.00;;;;;6.44;67.91;101510.94;2064315;28;45173;-61
2022/12/07 03:14:44;;;;;;;;;43.00;40.00;;;;;6.43;68.00;101514.47;2063571;28;46815;-61
2022/12/07 03:16:14;;;;;;;;;52.40;40.80;;;;;6.42;67.87;101512.69;2061901;28;46673;-60
2022/12/07 03:17:22;;;;;;;;;44.80;40.20;;;;;6.41;67.98;101504.78;2062418;28;46509;-61
2022/12/07 03:18:27;;;;;;;;;54.00;43.00;;;;;6.39;67.54;101509.16;2060695;28;46465;-61
2022/12/07 03:19:31;;;;;;;;;34.00;29.40;;;;;6.37;67.70;101506.53;2062287;28;46945;-60
2022/12/07 03:20:35;;;;;;;;;46.20;39.40;;;;;6.34;67.88;101498.56;2062139;28;46888;-62
2022/12/07 03:21:40;;;;;;;;;50.40;42.20;;;;;6.33;67.90;101502.06;2062349;28;46596;-61
2022/12/07 03:22:43;;;;;;;;;44.00;37.40;;;;;6.33;67.92;101506.47;2061675;28;46887;-61
2022/12/07 03:23:49;;;;;;;;;50.00;40.80;;;;;6.31;68.23;101501.19;2062103;28;46392;-61
2022/12/07 03:24:57;;;;;;;;;46.20;40.40;;;;;6.31;67.93;101505.56;2060804;28;46704;-59
2022/12/07 03:26:00;;;;;;;;;45.40;39.40;;;;;6.31;68.30;101498.53;2063214;28;46219;-61
2022/12/07 03:27:13;;;;;;;;;50.60;41.20;;;;;6.33;68.41;101499.44;2062514;28;46379;-62
2022/12/07 03:28:17;;;;;;;;;52.80;42.40;;;;;6.33;68.27;101501.19;2062701;28;46460;-61
2022/12/07 03:29:28;;;;;;;;;50.00;41.60;;;;;6.32;68.09;101508.22;2057189;28;46382;-59
2022/12/07 03:30:37;;;;;;;;;51.80;42.20;;;;;6.33;67.89;101501.19;2062412;28;46987;-60
2022/12/07 03:31:47;;;;;;;;;46.40;39.40;;;;;6.33;67.80;101494.16;2063158;28;46054;-60
2022/12/07 03:32:54;;;;;;;;;48.80;42.00;;;;;6.34;68.15;101498.56;2061967;28;46336;-61
2022/12/07 03:34:20;;;;;;;;;42.60;38.80;;;;;6.36;68.28;101490.69;2062755;28;46797;-61
2022/12/07 03:35:44;;;;;;;;;47.80;39.80;;;;;6.36;68.05;101495.97;2063598;28;46960;-62
2022/12/07 03:36:50;;;;;;;;;41.20;38.00;;;;;6.37;67.81;101500.38;2063565;28;46737;-61
2022/12/07 03:38:08;;;;;;;;;48.00;41.40;;;;;6.35;67.80;101494.16;2063783;28;45740;-61
2022/12/07 03:39:14;;;;;;;;;52.00;43.60;;;;;6.35;67.48;101503.00;2062436;28;46714;-62
2022/12/07 03:40:23;;;;;;;;;51.00;41.60;;;;;6.35;67.42;101504.72;2062050;28;46406;-62
2022/12/07 03:41:28;;;;;;;;;48.00;40.00;;;;;6.33;67.60;101495.91;2062890;28;46385;-61
2022/12/07 03:42:30;;;;;;;;;40.40;36.80;;;;;6.31;67.53;101500.31;2061791;28;47104;-61
2022/12/07 03:43:31;;;;;;;;;34.40;33.00;;;;;6.29;67.24;101495.03;2062184;28;46729;-62
2022/12/07 03:44:34;;;;;;;;;11.20;9.60;;;;;6.28;67.09;101497.66;2046262;28;47037;-61
2022/12/07 03:45:43;;;;;;;;;48.40;40.20;;;;;6.26;67.49;101497.63;2044682;28;46336;-60
2022/12/07 03:46:45;;;;;;;;;49.20;40.60;;;;;6.26;67.13;101499.41;2063711;28;46332;-61
2022/12/07 03:48:02;;;;;;;;;46.80;40.40;;;;;6.24;67.12;101490.59;2081607;28;45850;-60
2022/12/07 03:49:20;;;;;;;;;46.40;40.20;;;;;6.23;67.35;101494.09;2093650;28;46447;-60
2022/12/07 03:50:49;;;;;;;;;45.00;40.40;;;;;6.22;67.49;101497.56;2095513;28;46490;-60
2022/12/07 03:52:00;;;;;;;;;44.60;38.40;;;;;6.18;67.17;101497.56;2095530;28;46633;-61
2022/12/07 03:53:19;;;;;;;;;47.00;40.60;;;;;6.16;66.77;101494.03;2095880;28;46888;-61
2022/12/07 03:54:26;;;;;;;;;42.00;39.60;;;;;6.15;67.17;101500.19;2094044;28;46689;-62
2022/12/07 03:55:30;;;;;;;;;53.20;41.00;;;;;6.13;67.15;101485.22;2095538;28;46949;-60
2022/12/07 03:56:33;;;;;;;;;49.00;39.00;;;;;6.12;66.93;101491.38;2095536;28;46631;-61
2022/12/07 03:57:34;;;;;;;;;47.60;37.80;;;;;6.10;67.50;101488.72;2095488;28;46831;-60
2022/12/07 03:58:36;;;;;;;;;50.40;39.20;;;;;6.08;67.63;101492.19;2095799;28;46582;-61
2022/12/07 03:59:39;;;;;;;;;43.80;38.00;;;;;6.08;67.51;101500.97;2095694;28;46147;-60
2022/12/07 04:00:41;;;;;;;;;48.00;38.40;;;;;6.07;67.78;101493.94;2096100;28;46544;-59
2022/12/07 04:01:53;;;;;;;;;32.00;30.40;;;;;6.07;67.46;101486.03;2095066;28;46811;-62
2022/12/07 04:02:55;;;;;;;;;50.60;41.80;;;;;6.07;67.59;101493.06;2094637;28;46535;-61
2022/12/07 04:03:55;;;;;;;;;43.20;38.60;;;;;6.08;67.70;101484.28;2095761;28;46634;-58
2022/12/07 04:04:56;;;;;;;;;33.75;32.25;;;;;6.07;67.69;101479.88;2095650;28;46728;-61
2022/12/07 04:05:58;;;;;;;;;43.40;36.00;;;;;6.07;68.07;101483.41;2095505;28;46863;-60
2022/12/07 04:06:58;;;;;;;;;49.60;41.20;;;;;6.09;67.97;101494.84;2096092;28;46896;-60
2022/12/07 04:07:59;;;;;;;;;44.25;38.50;;;;;6.09;67.59;101486.03;2095390;28;46091;-61
2022/12/07 04:08:59;;;;;;;;;47.75;42.00;;;;;6.09;67.46;101489.56;2096005;28;46211;-61
2022/12/07 04:10:00;;;;;;;;;48.25;40.75;;;;;6.10;67.40;101485.22;2095939;28;45724;-61
2022/12/07 04:11:01;;;;;;;;;45.00;38.00;;;;;6.09;67.73;101484.28;2095765;28;46386;-61
2022/12/07 04:12:01;;;;;;;;;43.40;39.20;;;;;6.11;67.39;101489.59;2084090;28;46582;-58
2022/12/07 04:13:01;;;;;;;;;52.50;42.00;;;;;6.10;67.69;101486.09;2087018;28;45416;-61
2022/12/07 04:14:20;;;;;;;;;36.50;35.75;;;;;6.11;67.39;101482.59;2086159;28;46482;-62
2022/12/07 04:15:20;;;;;;;;;42.40;39.00;;;;;6.11;67.69;101489.59;2087398;28;46577;-62
2022/12/07 04:16:21;;;;;;;;;45.00;39.50;;;;;6.09;67.41;101486.03;2095461;28;46242;-59
2022/12/07 04:17:21;;;;;;;;;39.75;36.25;;;;;6.08;67.36;101495.69;2097782;28;46578;-60
2022/12/07 04:18:21;;;;;;;;;45.50;37.00;;;;;6.09;67.45;101492.19;2095573;28;46171;-61
2022/12/07 04:19:25;;;;;;;;;38.75;36.50;;;;;6.09;67.43;101497.47;2095796;28;45714;-59
2022/12/07 04:20:26;;;;;;;;;42.40;36.00;;;;;6.10;67.38;101498.38;2095655;28;46288;-61
2022/12/07 04:21:26;;;;;;;;;46.00;39.50;;;;;6.10;67.48;101498.38;2095782;28;45737;-61
2022/12/07 04:22:27;;;;;;;;;45.25;36.25;;;;;6.10;67.40;101495.75;2095808;28;46388;-61
2022/12/07 04:23:27;;;;;;;;;41.50;36.50;;;;;6.10;67.71;101498.38;2095704;28;46280;-60
2022/12/07 04:24:28;;;;;;;;;48.00;39.00;;;;;6.08;67.74;101487.81;2095725;28;45217;-62
2022/12/07 04:25:28;;;;;;;;;42.50;37.50;;;;;6.08;67.56;101484.28;2095585;28;46672;-59
2022/12/07 04:26:28;;;;;;;;;42.00;36.75;;;;;6.07;67.71;101483.41;2095519;28;46190;-59
2022/12/07 04:27:29;;;;;;;;;39.25;35.00;;;;;6.07;67.41;101485.16;2096120;28;45131;-60
2022/12/07 04:28:29;;;;;;;;;44.50;39.00;;;;;6.06;67.84;101491.28;2087115;28;46189;-61
2022/12/07 04:29:29;;;;;;;;;41.25;37.00;;;;;6.04;67.29;101487.78;2090057;28;46333;-60
2022/12/07 04:30:30;;;;;;;;;40.75;37.00;;;;;6.03;67.87;101492.16;2095929;28;45249;-59
2022/12/07 04:31:30;;;;;;;;;43.00;34.50;;;;;6.04;67.22;101493.03;2095154;28;46241;-60
2022/12/07 04:32:30;;;;;;;;;40.00;33.00;;;;;6.04;68.12;101493.03;2095629;28;46308;-60
2022/12/07 04:33:31;;;;;;;;;40.75;36.75;;;;;6.05;67.64;101497.44;2095286;28;46931;-61
2022/12/07 04:34:31;;;;;;;;;35.75;33.50;;;;;6.06;67.62;101491.28;2095705;28;46480;-60
2022/12/07 04:35:31;;;;;;;;;38.00;35.25;;;;;6.05;67.57;101490.41;2095451;28;46276;-63
2022/12/07 04:36:32;;;;;;;;;43.25;37.75;;;;;6.06;67.54;101489.53;2095800;28;46827;-63
2022/12/07 04:37:33;;;;;;;;;42.00;37.60;;;;;6.07;67.58;101493.06;2096700;28;47911;-59
2022/12/07 04:38:33;;;;;;;;;38.25;35.25;;;;;6.07;67.71;101491.31;2095741;28;46479;-59
2022/12/07 04:39:34;;;;;;;;;42.25;38.50;;;;;6.07;67.91;101483.41;2095528;28;46198;-60
2022/12/07 04:40:34;;;;;;;;;46.25;38.00;;;;;6.08;67.54;101482.53;2097896;28;46525;-60
2022/12/07 04:41:34;;;;;;;;;35.25;33.00;;;;;6.09;67.54;101486.03;2095476;28;46641;-60
2022/12/07 04:42:35;;;;;;;;;36.50;34.50;;;;;6.08;67.43;101484.28;2095526;28;46858;-60
2022/12/07 04:43:35;;;;;;;;;37.25;35.50;;;;;6.08;67.92;101485.16;2095634;28;46374;-62
2022/12/07 04:44:36;;;;;;;;;41.25;36.00;;;;;6.07;67.95;101496.56;2096191;28;46326;-61
2022/12/07 04:45:36;;;;;;;;;41.25;36.00;;;;;6.08;67.65;101497.47;2095287;28;46832;-59
2022/12/07 04:46:37;;;;;;;;;43.25;38.00;;;;;6.08;67.66;101493.06;2095487;28;46546;-59
2022/12/07 04:47:37;;;;;;;;;40.50;36.25;;;;;6.07;67.45;101486.03;2093947;28;47023;-59
2022/12/07 04:48:37;;;;;;;;;38.00;36.00;;;;;6.07;67.91;101486.03;2094814;28;46440;-60
2022/12/07 04:49:37;;;;;;;;;45.25;38.75;;;;;6.07;67.62;101483.41;2094127;28;46346;-61
2022/12/07 04:50:38;;;;;;;;;44.50;37.75;;;;;6.08;67.56;101477.25;2095717;28;46640;-60
2022/12/07 04:51:39;;;;;;;;;40.75;36.00;;;;;6.08;67.62;101479.91;2091290;28;46564;-61
2022/12/07 04:52:39;;;;;;;;;47.20;40.40;;;;;6.10;67.50;101479.94;2087787;28;47218;-61
2022/12/07 04:53:39;;;;;;;;;54.50;43.00;;;;;6.11;67.61;101479.06;2095715;28;46646;-62
2022/12/07 04:54:40;;;;;;;;;50.50;41.50;;;;;6.11;67.86;101477.31;2095787;28;46338;-61
2022/12/07 04:55:40;;;;;;;;;52.25;44.25;;;;;6.11;67.50;101477.31;2095504;28;46295;-62
2022/12/07 04:56:41;;;;;;;;;54.25;45.25;;;;;6.11;67.95;101474.69;2095646;28;45864;-60